sensor_id;sensor_type;location;lat;lon;timestamp;P1;durP1;ratioP1;P2;durP2;ratioP2
15667;SDS011;7934;48.710;9.024;2023-06-26T00:00:51;9.98;;;8.45;;
15667;SDS011;7934;48.710;9.024;2023-06-26T00:03:18;9.45;;;8.55;;
15667;SDS011;7934;48.710;9.024;2023-06-26T00:05:45;8.95;;;7.97;;
15667;SDS011;7934;48.710;9.024;2023-06-26T00:08:13;9.13;;;8.07;;
15667;SDS011;7934;48.710;9.024;2023-06-26T00:10:40;9.13;;;8.35;;
15667;SDS011;7934;48.710;9.024;2023-06-26T00:13:07;9.40;;;8.55;;
15667;SDS011;7934;48.710;9.024;2023-06-26T00:15:37;8.65;;;7.95;;
15667;SDS011;7934;48.710;9.024;2023-06-26T00:18:06;9.32;;;8.45;;
15667;SDS011;7934;48.710;9.024;2023-06-26T00:20:33;9.32;;;8.43;;
15667;SDS011;7934;48.710;9.024;2023-06-26T00:23:00;9.07;;;8.27;;
15667;SDS011;7934;48.710;9.024;2023-06-26T00:25:29;9.27;;;8.48;;
15667;SDS011;7934;48.710;9.024;2023-06-26T00:27:56;8.77;;;7.90;;
15667;SDS011;7934;48.710;9.024;2023-06-26T00:30:23;8.90;;;8.10;;
15667;SDS011;7934;48.710;9.024;2023-06-26T00:32:50;9.57;;;8.70;;
15667;SDS011;7934;48.710;9.024;2023-06-26T00:35:19;9.00;;;7.93;;
15667;SDS011;7934;48.710;9.024;2023-06-26T00:37:46;9.60;;;8.80;;
15667;SDS011;7934;48.710;9.024;2023-06-26T00:40:14;9.13;;;8.32;;
15667;SDS011;7934;48.710;9.024;2023-06-26T00:42:41;9.35;;;8.55;;
15667;SDS011;7934;48.710;9.024;2023-06-26T00:45:08;9.23;;;8.35;;
15667;SDS011;7934;48.710;9.024;2023-06-26T00:47:36;9.63;;;8.73;;
15667;SDS011;7934;48.710;9.024;2023-06-26T00:50:03;9.23;;;8.43;;
15667;SDS011;7934;48.710;9.024;2023-06-26T00:52:32;9.43;;;8.63;;
15667;SDS011;7934;48.710;9.024;2023-06-26T00:54:59;9.23;;;8.43;;
15667;SDS011;7934;48.710;9.024;2023-06-26T00:57:26;9.55;;;8.55;;
15667;SDS011;7934;48.710;9.024;2023-06-26T00:59:54;9.25;;;8.35;;
15667;SDS011;7934;48.710;9.024;2023-06-26T01:02:21;9.45;;;8.57;;
15667;SDS011;7934;48.710;9.024;2023-06-26T01:04:48;9.63;;;8.73;;
15667;SDS011;7934;48.710;9.024;2023-06-26T01:07:16;9.52;;;8.63;;
15667;SDS011;7934;48.710;9.024;2023-06-26T01:09:45;9.65;;;8.85;;
15667;SDS011;7934;48.710;9.024;2023-06-26T01:12:13;9.68;;;8.70;;
15667;SDS011;7934;48.710;9.024;2023-06-26T01:14:40;9.20;;;8.33;;
15667;SDS011;7934;48.710;9.024;2023-06-26T01:17:07;9.30;;;8.50;;
15667;SDS011;7934;48.710;9.024;2023-06-26T01:19:37;9.10;;;8.20;;
15667;SDS011;7934;48.710;9.024;2023-06-26T01:22:07;9.13;;;8.32;;
15667;SDS011;7934;48.710;9.024;2023-06-26T01:24:42;9.07;;;8.38;;
15667;SDS011;7934;48.710;9.024;2023-06-26T01:27:13;9.32;;;8.52;;
15667;SDS011;7934;48.710;9.024;2023-06-26T01:29:41;8.73;;;7.90;;
15667;SDS011;7934;48.710;9.024;2023-06-26T01:32:08;9.70;;;8.80;;
15667;SDS011;7934;48.710;9.024;2023-06-26T01:34:35;9.75;;;8.75;;
15667;SDS011;7934;48.710;9.024;2023-06-26T01:37:03;9.50;;;8.57;;
15667;SDS011;7934;48.710;9.024;2023-06-26T01:39:30;9.45;;;8.65;;
15667;SDS011;7934;48.710;9.024;2023-06-26T01:41:57;9.60;;;8.65;;
15667;SDS011;7934;48.710;9.024;2023-06-26T01:44:28;9.43;;;8.52;;
15667;SDS011;7934;48.710;9.024;2023-06-26T01:46:59;9.85;;;8.95;;
15667;SDS011;7934;48.710;9.024;2023-06-26T01:49:30;9.90;;;9.10;;
15667;SDS011;7934;48.710;9.024;2023-06-26T01:51:58;9.20;;;8.40;;
15667;SDS011;7934;48.710;9.024;2023-06-26T01:54:30;9.68;;;8.77;;
15667;SDS011;7934;48.710;9.024;2023-06-26T01:57:00;9.95;;;9.05;;
15667;SDS011;7934;48.710;9.024;2023-06-26T01:59:28;9.65;;;8.65;;
15667;SDS011;7934;48.710;9.024;2023-06-26T02:01:56;9.88;;;8.98;;
15667;SDS011;7934;48.710;9.024;2023-06-26T02:04:23;9.75;;;8.82;;
15667;SDS011;7934;48.710;9.024;2023-06-26T02:06:51;10.02;;;9.23;;
15667;SDS011;7934;48.710;9.024;2023-06-26T02:09:19;9.05;;;8.23;;
15667;SDS011;7934;48.710;9.024;2023-06-26T02:11:47;9.52;;;8.52;;
15667;SDS011;7934;48.710;9.024;2023-06-26T02:14:14;9.10;;;8.32;;
15667;SDS011;7934;48.710;9.024;2023-06-26T02:16:42;9.38;;;8.57;;
15667;SDS011;7934;48.710;9.024;2023-06-26T02:19:09;9.68;;;8.77;;
15667;SDS011;7934;48.710;9.024;2023-06-26T02:21:37;9.65;;;8.82;;
15667;SDS011;7934;48.710;9.024;2023-06-26T02:24:04;10.05;;;8.93;;
15667;SDS011;7934;48.710;9.024;2023-06-26T02:26:31;10.57;;;9.13;;
15667;SDS011;7934;48.710;9.024;2023-06-26T02:28:58;10.07;;;9.10;;
15667;SDS011;7934;48.710;9.024;2023-06-26T02:31:26;9.90;;;9.00;;
15667;SDS011;7934;48.710;9.024;2023-06-26T02:33:54;10.93;;;9.75;;
15667;SDS011;7934;48.710;9.024;2023-06-26T02:36:21;10.15;;;9.15;;
15667;SDS011;7934;48.710;9.024;2023-06-26T02:38:48;9.63;;;8.77;;
15667;SDS011;7934;48.710;9.024;2023-06-26T02:41:15;10.38;;;9.48;;
15667;SDS011;7934;48.710;9.024;2023-06-26T02:43:42;9.80;;;8.90;;
15667;SDS011;7934;48.710;9.024;2023-06-26T02:46:10;9.60;;;8.80;;
15667;SDS011;7934;48.710;9.024;2023-06-26T02:48:37;10.32;;;9.38;;
15667;SDS011;7934;48.710;9.024;2023-06-26T02:51:05;9.40;;;8.60;;
15667;SDS011;7934;48.710;9.024;2023-06-26T02:53:32;10.43;;;9.32;;
15667;SDS011;7934;48.710;9.024;2023-06-26T02:55:59;8.98;;;8.18;;
15667;SDS011;7934;48.710;9.024;2023-06-26T02:58:27;10.00;;;9.10;;
15667;SDS011;7934;48.710;9.024;2023-06-26T03:00:54;9.52;;;8.68;;
15667;SDS011;7934;48.710;9.024;2023-06-26T03:03:21;9.52;;;8.63;;
15667;SDS011;7934;48.710;9.024;2023-06-26T03:05:48;9.77;;;8.77;;
15667;SDS011;7934;48.710;9.024;2023-06-26T03:08:17;10.27;;;9.38;;
15667;SDS011;7934;48.710;9.024;2023-06-26T03:10:44;9.88;;;8.98;;
15667;SDS011;7934;48.710;9.024;2023-06-26T03:13:11;9.73;;;8.87;;
15667;SDS011;7934;48.710;9.024;2023-06-26T03:15:38;9.85;;;9.00;;
15667;SDS011;7934;48.710;9.024;2023-06-26T03:18:05;10.38;;;9.45;;
15667;SDS011;7934;48.710;9.024;2023-06-26T03:20:34;9.90;;;9.10;;
15667;SDS011;7934;48.710;9.024;2023-06-26T03:23:01;10.17;;;9.10;;
15667;SDS011;7934;48.710;9.024;2023-06-26T03:25:30;10.13;;;9.13;;
15667;SDS011;7934;48.710;9.024;2023-06-26T03:27:57;9.90;;;8.98;;
15667;SDS011;7934;48.710;9.024;2023-06-26T03:30:24;9.80;;;9.00;;
15667;SDS011;7934;48.710;9.024;2023-06-26T03:32:51;10.20;;;9.20;;
15667;SDS011;7934;48.710;9.024;2023-06-26T03:35:18;10.50;;;9.50;;
15667;SDS011;7934;48.710;9.024;2023-06-26T03:37:46;10.57;;;9.57;;
15667;SDS011;7934;48.710;9.024;2023-06-26T03:40:13;10.10;;;9.20;;
15667;SDS011;7934;48.710;9.024;2023-06-26T03:42:42;9.65;;;8.75;;
15667;SDS011;7934;48.710;9.024;2023-06-26T03:45:09;9.77;;;8.90;;
15667;SDS011;7934;48.710;9.024;2023-06-26T03:47:36;10.53;;;9.53;;
15667;SDS011;7934;48.710;9.024;2023-06-26T03:50:03;9.70;;;8.82;;
15667;SDS011;7934;48.710;9.024;2023-06-26T03:52:31;10.27;;;9.27;;
15667;SDS011;7934;48.710;9.024;2023-06-26T03:54:58;10.20;;;9.25;;
15667;SDS011;7934;48.710;9.024;2023-06-26T03:57:25;10.60;;;9.25;;
15667;SDS011;7934;48.710;9.024;2023-06-26T03:59:53;10.02;;;8.95;;
15667;SDS011;7934;48.710;9.024;2023-06-26T04:02:21;10.55;;;9.02;;
15667;SDS011;7934;48.710;9.024;2023-06-26T04:04:48;10.10;;;9.20;;
15667;SDS011;7934;48.710;9.024;2023-06-26T04:07:17;9.97;;;8.97;;
15667;SDS011;7934;48.710;9.024;2023-06-26T04:09:44;9.63;;;8.73;;
15667;SDS011;7934;48.710;9.024;2023-06-26T04:12:11;9.60;;;8.70;;
15667;SDS011;7934;48.710;9.024;2023-06-26T04:14:39;10.27;;;9.38;;
15667;SDS011;7934;48.710;9.024;2023-06-26T04:17:07;10.55;;;9.55;;
15667;SDS011;7934;48.710;9.024;2023-06-26T04:19:34;9.63;;;8.82;;
15667;SDS011;7934;48.710;9.024;2023-06-26T04:22:01;10.15;;;9.15;;
15667;SDS011;7934;48.710;9.024;2023-06-26T04:24:29;10.47;;;9.37;;
15667;SDS011;7934;48.710;9.024;2023-06-26T04:26:56;9.93;;;8.93;;
15667;SDS011;7934;48.710;9.024;2023-06-26T04:29:23;10.43;;;9.43;;
15667;SDS011;7934;48.710;9.024;2023-06-26T04:31:50;10.00;;;9.15;;
15667;SDS011;7934;48.710;9.024;2023-06-26T04:34:24;10.27;;;9.23;;
15667;SDS011;7934;48.710;9.024;2023-06-26T04:36:51;9.75;;;8.93;;
15667;SDS011;7934;48.710;9.024;2023-06-26T04:39:18;11.93;;;9.20;;
15667;SDS011;7934;48.710;9.024;2023-06-26T04:41:45;9.95;;;8.93;;
15667;SDS011;7934;48.710;9.024;2023-06-26T04:44:12;10.47;;;9.37;;
15667;SDS011;7934;48.710;9.024;2023-06-26T04:46:40;9.70;;;8.77;;
15667;SDS011;7934;48.710;9.024;2023-06-26T04:49:07;12.20;;;9.20;;
15667;SDS011;7934;48.710;9.024;2023-06-26T04:51:35;12.07;;;8.90;;
15667;SDS011;7934;48.710;9.024;2023-06-26T04:54:05;10.17;;;9.10;;
15667;SDS011;7934;48.710;9.024;2023-06-26T04:56:32;10.43;;;9.23;;
15667;SDS011;7934;48.710;9.024;2023-06-26T04:58:59;10.35;;;9.15;;
15667;SDS011;7934;48.710;9.024;2023-06-26T05:01:27;9.43;;;8.60;;
15667;SDS011;7934;48.710;9.024;2023-06-26T05:03:55;11.40;;;8.73;;
15667;SDS011;7934;48.710;9.024;2023-06-26T05:06:22;9.63;;;8.50;;
15667;SDS011;7934;48.710;9.024;2023-06-26T05:08:50;9.27;;;8.43;;
15667;SDS011;7934;48.710;9.024;2023-06-26T05:11:17;9.00;;;8.20;;
15667;SDS011;7934;48.710;9.024;2023-06-26T05:13:45;9.02;;;8.15;;
15667;SDS011;7934;48.710;9.024;2023-06-26T05:16:12;8.63;;;7.65;;
15667;SDS011;7934;48.710;9.024;2023-06-26T05:18:39;8.43;;;7.65;;
15667;SDS011;7934;48.710;9.024;2023-06-26T05:21:06;7.80;;;7.00;;
15667;SDS011;7934;48.710;9.024;2023-06-26T05:23:34;8.52;;;7.72;;
15667;SDS011;7934;48.710;9.024;2023-06-26T05:26:03;8.38;;;7.57;;
15667;SDS011;7934;48.710;9.024;2023-06-26T05:28:30;8.70;;;7.80;;
15667;SDS011;7934;48.710;9.024;2023-06-26T05:30:58;8.82;;;7.97;;
15667;SDS011;7934;48.710;9.024;2023-06-26T05:33:25;8.75;;;7.85;;
15667;SDS011;7934;48.710;9.024;2023-06-26T05:35:53;10.98;;;8.20;;
15667;SDS011;7934;48.710;9.024;2023-06-26T05:38:21;9.88;;;7.70;;
15667;SDS011;7934;48.710;9.024;2023-06-26T05:40:48;8.35;;;7.55;;
15667;SDS011;7934;48.710;9.024;2023-06-26T05:43:17;9.63;;;7.50;;
15667;SDS011;7934;48.710;9.024;2023-06-26T05:45:46;8.23;;;7.30;;
15667;SDS011;7934;48.710;9.024;2023-06-26T05:48:13;7.88;;;7.18;;
15667;SDS011;7934;48.710;9.024;2023-06-26T05:50:41;7.97;;;6.80;;
15667;SDS011;7934;48.710;9.024;2023-06-26T05:53:09;7.07;;;6.38;;
15667;SDS011;7934;48.710;9.024;2023-06-26T05:55:36;7.43;;;6.63;;
15667;SDS011;7934;48.710;9.024;2023-06-26T05:58:04;7.20;;;6.57;;
15667;SDS011;7934;48.710;9.024;2023-06-26T06:00:33;10.18;;;6.88;;
15667;SDS011;7934;48.710;9.024;2023-06-26T06:03:01;9.25;;;7.00;;
15667;SDS011;7934;48.710;9.024;2023-06-26T06:05:28;8.23;;;6.57;;
15667;SDS011;7934;48.710;9.024;2023-06-26T06:07:55;10.23;;;6.82;;
15667;SDS011;7934;48.710;9.024;2023-06-26T06:10:22;7.82;;;7.10;;
15667;SDS011;7934;48.710;9.024;2023-06-26T06:12:49;10.90;;;9.83;;
15667;SDS011;7934;48.710;9.024;2023-06-26T06:15:17;8.55;;;6.90;;
15667;SDS011;7934;48.710;9.024;2023-06-26T06:17:45;8.48;;;6.65;;
15667;SDS011;7934;48.710;9.024;2023-06-26T06:20:12;8.05;;;6.90;;
15667;SDS011;7934;48.710;9.024;2023-06-26T06:22:40;7.43;;;6.72;;
15667;SDS011;7934;48.710;9.024;2023-06-26T06:25:07;6.85;;;6.28;;
15667;SDS011;7934;48.710;9.024;2023-06-26T06:27:34;7.33;;;6.83;;
15667;SDS011;7934;48.710;9.024;2023-06-26T06:30:01;7.65;;;7.15;;
15667;SDS011;7934;48.710;9.024;2023-06-26T06:32:29;7.32;;;6.63;;
15667;SDS011;7934;48.710;9.024;2023-06-26T06:34:57;7.15;;;6.57;;
15667;SDS011;7934;48.710;9.024;2023-06-26T06:37:24;6.80;;;6.30;;
15667;SDS011;7934;48.710;9.024;2023-06-26T06:39:53;6.85;;;6.25;;
15667;SDS011;7934;48.710;9.024;2023-06-26T06:42:20;7.13;;;6.53;;
15667;SDS011;7934;48.710;9.024;2023-06-26T06:44:47;9.23;;;6.38;;
15667;SDS011;7934;48.710;9.024;2023-06-26T06:47:14;6.60;;;6.03;;
15667;SDS011;7934;48.710;9.024;2023-06-26T06:49:41;7.57;;;6.53;;
15667;SDS011;7934;48.710;9.024;2023-06-26T06:52:10;7.15;;;6.63;;
15667;SDS011;7934;48.710;9.024;2023-06-26T06:54:50;7.40;;;6.53;;
15667;SDS011;7934;48.710;9.024;2023-06-26T06:57:18;7.28;;;6.63;;
15667;SDS011;7934;48.710;9.024;2023-06-26T06:59:45;6.70;;;6.25;;
15667;SDS011;7934;48.710;9.024;2023-06-26T07:02:13;7.65;;;6.30;;
15667;SDS011;7934;48.710;9.024;2023-06-26T07:04:40;6.70;;;6.13;;
15667;SDS011;7934;48.710;9.024;2023-06-26T07:07:07;6.70;;;6.30;;
15667;SDS011;7934;48.710;9.024;2023-06-26T07:09:36;7.03;;;6.53;;
15667;SDS011;7934;48.710;9.024;2023-06-26T07:12:04;6.33;;;5.93;;
15667;SDS011;7934;48.710;9.024;2023-06-26T07:14:31;7.07;;;6.50;;
15667;SDS011;7934;48.710;9.024;2023-06-26T07:16:58;6.35;;;5.75;;
15667;SDS011;7934;48.710;9.024;2023-06-26T07:19:26;6.75;;;6.28;;
15667;SDS011;7934;48.710;9.024;2023-06-26T07:21:53;6.78;;;6.25;;
15667;SDS011;7934;48.710;9.024;2023-06-26T07:24:20;6.30;;;5.90;;
15667;SDS011;7934;48.710;9.024;2023-06-26T07:26:48;6.75;;;6.13;;
15667;SDS011;7934;48.710;9.024;2023-06-26T07:29:15;6.43;;;6.00;;
15667;SDS011;7934;48.710;9.024;2023-06-26T07:31:43;6.20;;;5.78;;
15667;SDS011;7934;48.710;9.024;2023-06-26T07:34:10;6.13;;;5.63;;
15667;SDS011;7934;48.710;9.024;2023-06-26T07:36:37;7.43;;;5.90;;
15667;SDS011;7934;48.710;9.024;2023-06-26T07:39:04;6.20;;;5.80;;
15667;SDS011;7934;48.710;9.024;2023-06-26T07:41:31;7.00;;;5.80;;
15667;SDS011;7934;48.710;9.024;2023-06-26T07:44:00;6.15;;;5.55;;
15667;SDS011;7934;48.710;9.024;2023-06-26T07:46:27;6.13;;;5.47;;
15667;SDS011;7934;48.710;9.024;2023-06-26T07:48:54;6.60;;;6.05;;
15667;SDS011;7934;48.710;9.024;2023-06-26T07:51:22;5.90;;;5.47;;
15667;SDS011;7934;48.710;9.024;2023-06-26T07:53:49;5.32;;;4.97;;
15667;SDS011;7934;48.710;9.024;2023-06-26T07:56:18;5.00;;;4.60;;
15667;SDS011;7934;48.710;9.024;2023-06-26T07:58:46;5.03;;;4.63;;
15667;SDS011;7934;48.710;9.024;2023-06-26T08:01:14;5.28;;;4.78;;
15667;SDS011;7934;48.710;9.024;2023-06-26T08:03:41;5.18;;;4.68;;
15667;SDS011;7934;48.710;9.024;2023-06-26T08:06:08;4.93;;;4.60;;
15667;SDS011;7934;48.710;9.024;2023-06-26T08:08:36;5.10;;;4.78;;
15667;SDS011;7934;48.710;9.024;2023-06-26T08:11:03;4.85;;;4.65;;
15667;SDS011;7934;48.710;9.024;2023-06-26T08:13:30;4.78;;;4.47;;
15667;SDS011;7934;48.710;9.024;2023-06-26T08:15:57;4.93;;;4.63;;
15667;SDS011;7934;48.710;9.024;2023-06-26T08:18:26;4.70;;;4.40;;
15667;SDS011;7934;48.710;9.024;2023-06-26T08:20:54;4.75;;;4.35;;
15667;SDS011;7934;48.710;9.024;2023-06-26T08:23:22;4.95;;;4.60;;
15667;SDS011;7934;48.710;9.024;2023-06-26T08:25:49;5.15;;;4.75;;
15667;SDS011;7934;48.710;9.024;2023-06-26T08:28:16;4.68;;;4.47;;
15667;SDS011;7934;48.710;9.024;2023-06-26T08:30:44;4.82;;;4.53;;
15667;SDS011;7934;48.710;9.024;2023-06-26T08:33:15;4.72;;;4.53;;
15667;SDS011;7934;48.710;9.024;2023-06-26T08:35:44;4.97;;;4.78;;
15667;SDS011;7934;48.710;9.024;2023-06-26T08:38:11;5.10;;;4.70;;
15667;SDS011;7934;48.710;9.024;2023-06-26T08:40:39;5.20;;;4.82;;
15667;SDS011;7934;48.710;9.024;2023-06-26T08:43:06;5.13;;;4.78;;
15667;SDS011;7934;48.710;9.024;2023-06-26T08:45:33;5.45;;;5.03;;
15667;SDS011;7934;48.710;9.024;2023-06-26T08:48:00;4.90;;;4.70;;
15667;SDS011;7934;48.710;9.024;2023-06-26T08:50:30;5.63;;;4.72;;
15667;SDS011;7934;48.710;9.024;2023-06-26T08:53:00;5.65;;;5.18;;
15667;SDS011;7934;48.710;9.024;2023-06-26T08:55:32;4.95;;;4.75;;
15667;SDS011;7934;48.710;9.024;2023-06-26T08:58:00;5.30;;;5.10;;
15667;SDS011;7934;48.710;9.024;2023-06-26T09:00:27;5.80;;;4.97;;
15667;SDS011;7934;48.710;9.024;2023-06-26T09:02:55;4.85;;;4.65;;
15667;SDS011;7934;48.710;9.024;2023-06-26T09:05:22;4.82;;;4.53;;
15667;SDS011;7934;48.710;9.024;2023-06-26T09:07:49;5.18;;;4.78;;
15667;SDS011;7934;48.710;9.024;2023-06-26T09:10:21;5.20;;;4.85;;
15667;SDS011;7934;48.710;9.024;2023-06-26T09:12:49;5.22;;;4.93;;
15667;SDS011;7934;48.710;9.024;2023-06-26T09:15:19;5.28;;;5.00;;
15667;SDS011;7934;48.710;9.024;2023-06-26T09:17:47;5.15;;;4.85;;
15667;SDS011;7934;48.710;9.024;2023-06-26T09:20:15;5.35;;;4.95;;
15667;SDS011;7934;48.710;9.024;2023-06-26T09:22:43;5.55;;;5.25;;
15667;SDS011;7934;48.710;9.024;2023-06-26T09:25:10;5.35;;;5.05;;
15667;SDS011;7934;48.710;9.024;2023-06-26T09:27:39;5.13;;;4.85;;
15667;SDS011;7934;48.710;9.024;2023-06-26T09:30:07;5.25;;;4.95;;
15667;SDS011;7934;48.710;9.024;2023-06-26T09:32:34;4.75;;;4.45;;
15667;SDS011;7934;48.710;9.024;2023-06-26T09:35:02;5.40;;;5.05;;
15667;SDS011;7934;48.710;9.024;2023-06-26T09:37:29;5.30;;;5.00;;
15667;SDS011;7934;48.710;9.024;2023-06-26T09:39:56;5.38;;;4.97;;
15667;SDS011;7934;48.710;9.024;2023-06-26T09:42:24;5.75;;;5.25;;
15667;SDS011;7934;48.710;9.024;2023-06-26T09:44:52;5.60;;;5.30;;
15667;SDS011;7934;48.710;9.024;2023-06-26T09:47:20;5.60;;;5.10;;
15667;SDS011;7934;48.710;9.024;2023-06-26T09:49:47;5.43;;;5.13;;
15667;SDS011;7934;48.710;9.024;2023-06-26T09:52:15;6.22;;;5.85;;
15667;SDS011;7934;48.710;9.024;2023-06-26T09:54:43;5.63;;;5.30;;
15667;SDS011;7934;48.710;9.024;2023-06-26T09:57:11;5.90;;;5.40;;
15667;SDS011;7934;48.710;9.024;2023-06-26T09:59:39;7.20;;;5.50;;
15667;SDS011;7934;48.710;9.024;2023-06-26T10:02:07;5.87;;;5.30;;
15667;SDS011;7934;48.710;9.024;2023-06-26T10:04:36;6.85;;;6.28;;
15667;SDS011;7934;48.710;9.024;2023-06-26T10:07:04;5.75;;;5.15;;
15667;SDS011;7934;48.710;9.024;2023-06-26T10:09:34;6.70;;;5.80;;
15667;SDS011;7934;48.710;9.024;2023-06-26T10:12:06;6.47;;;5.97;;
15667;SDS011;7934;48.710;9.024;2023-06-26T10:14:34;6.00;;;5.53;;
15667;SDS011;7934;48.710;9.024;2023-06-26T10:17:03;6.40;;;5.88;;
15667;SDS011;7934;48.710;9.024;2023-06-26T10:19:31;6.03;;;5.47;;
15667;SDS011;7934;48.710;9.024;2023-06-26T10:22:00;6.00;;;5.60;;
15667;SDS011;7934;48.710;9.024;2023-06-26T10:24:29;5.80;;;5.40;;
15667;SDS011;7934;48.710;9.024;2023-06-26T10:26:57;6.05;;;5.55;;
15667;SDS011;7934;48.710;9.024;2023-06-26T10:29:26;6.63;;;5.95;;
15667;SDS011;7934;48.710;9.024;2023-06-26T10:31:55;6.88;;;6.32;;
15667;SDS011;7934;48.710;9.024;2023-06-26T10:34:23;7.03;;;6.43;;
15667;SDS011;7934;48.710;9.024;2023-06-26T10:36:59;7.43;;;6.53;;
15667;SDS011;7934;48.710;9.024;2023-06-26T10:39:27;5.90;;;5.50;;
15667;SDS011;7934;48.710;9.024;2023-06-26T10:41:54;6.40;;;5.95;;
15667;SDS011;7934;48.710;9.024;2023-06-26T10:44:22;8.38;;;6.40;;
15667;SDS011;7934;48.710;9.024;2023-06-26T10:46:49;7.10;;;6.63;;
15667;SDS011;7934;48.710;9.024;2023-06-26T10:49:18;6.00;;;5.60;;
15667;SDS011;7934;48.710;9.024;2023-06-26T10:51:46;6.75;;;6.20;;
15667;SDS011;7934;48.710;9.024;2023-06-26T10:54:15;6.15;;;5.75;;
15667;SDS011;7934;48.710;9.024;2023-06-26T10:56:44;6.65;;;6.15;;
15667;SDS011;7934;48.710;9.024;2023-06-26T10:59:13;10.25;;;6.38;;
15667;SDS011;7934;48.710;9.024;2023-06-26T11:01:41;7.22;;;5.88;;
15667;SDS011;7934;48.710;9.024;2023-06-26T11:04:08;7.87;;;6.37;;
15667;SDS011;7934;48.710;9.024;2023-06-26T11:06:37;6.80;;;6.30;;
15667;SDS011;7934;48.710;9.024;2023-06-26T11:09:08;7.22;;;6.60;;
15667;SDS011;7934;48.710;9.024;2023-06-26T11:11:59;6.53;;;6.03;;
15667;SDS011;7934;48.710;9.024;2023-06-26T11:14:33;6.50;;;5.90;;
15667;SDS011;7934;48.710;9.024;2023-06-26T11:17:03;6.18;;;5.68;;
15667;SDS011;7934;48.710;9.024;2023-06-26T11:19:30;6.20;;;5.70;;
15667;SDS011;7934;48.710;9.024;2023-06-26T11:21:58;6.63;;;5.93;;
15667;SDS011;7934;48.710;9.024;2023-06-26T11:24:26;8.35;;;5.75;;
15667;SDS011;7934;48.710;9.024;2023-06-26T11:26:54;6.38;;;5.97;;
15667;SDS011;7934;48.710;9.024;2023-06-26T11:29:29;6.38;;;5.97;;
15667;SDS011;7934;48.710;9.024;2023-06-26T11:31:59;8.05;;;6.50;;
15667;SDS011;7934;48.710;9.024;2023-06-26T11:34:29;6.45;;;5.88;;
15667;SDS011;7934;48.710;9.024;2023-06-26T11:36:57;6.43;;;5.80;;
15667;SDS011;7934;48.710;9.024;2023-06-26T11:39:26;8.80;;;5.90;;
15667;SDS011;7934;48.710;9.024;2023-06-26T11:41:53;6.07;;;5.68;;
15667;SDS011;7934;48.710;9.024;2023-06-26T11:44:21;6.63;;;6.07;;
15667;SDS011;7934;48.710;9.024;2023-06-26T11:46:52;6.57;;;6.07;;
15667;SDS011;7934;48.710;9.024;2023-06-26T11:49:21;8.20;;;5.80;;
15667;SDS011;7934;48.710;9.024;2023-06-26T11:51:50;6.55;;;5.95;;
15667;SDS011;7934;48.710;9.024;2023-06-26T11:54:23;6.88;;;5.88;;
15667;SDS011;7934;48.710;9.024;2023-06-26T11:56:54;6.38;;;5.88;;
15667;SDS011;7934;48.710;9.024;2023-06-26T11:59:23;6.53;;;6.10;;
15667;SDS011;7934;48.710;9.024;2023-06-26T12:01:52;6.87;;;6.37;;
15667;SDS011;7934;48.710;9.024;2023-06-26T12:04:19;6.68;;;6.20;;
15667;SDS011;7934;48.710;9.024;2023-06-26T12:06:47;6.32;;;5.82;;
15667;SDS011;7934;48.710;9.024;2023-06-26T12:09:15;6.28;;;5.80;;
15667;SDS011;7934;48.710;9.024;2023-06-26T12:11:44;6.38;;;5.88;;
15667;SDS011;7934;48.710;9.024;2023-06-26T12:14:13;7.43;;;5.85;;
15667;SDS011;7934;48.710;9.024;2023-06-26T12:16:40;6.68;;;6.18;;
15667;SDS011;7934;48.710;9.024;2023-06-26T12:19:09;7.68;;;5.90;;
15667;SDS011;7934;48.710;9.024;2023-06-26T12:21:46;7.07;;;6.40;;
15667;SDS011;7934;48.710;9.024;2023-06-26T12:24:17;6.85;;;6.10;;
15667;SDS011;7934;48.710;9.024;2023-06-26T12:26:46;7.27;;;5.97;;
15667;SDS011;7934;48.710;9.024;2023-06-26T12:29:14;6.60;;;6.10;;
15667;SDS011;7934;48.710;9.024;2023-06-26T12:31:42;6.38;;;5.78;;
15667;SDS011;7934;48.710;9.024;2023-06-26T12:34:12;6.40;;;5.90;;
15667;SDS011;7934;48.710;9.024;2023-06-26T12:36:43;7.38;;;6.30;;
15667;SDS011;7934;48.710;9.024;2023-06-26T12:39:11;6.57;;;5.72;;
15667;SDS011;7934;48.710;9.024;2023-06-26T12:41:45;6.20;;;5.70;;
15667;SDS011;7934;48.710;9.024;2023-06-26T12:44:19;6.40;;;6.00;;
15667;SDS011;7934;48.710;9.024;2023-06-26T12:46:47;7.07;;;6.47;;
15667;SDS011;7934;48.710;9.024;2023-06-26T12:49:16;6.63;;;5.97;;
15667;SDS011;7934;48.710;9.024;2023-06-26T12:51:44;7.03;;;6.17;;
15667;SDS011;7934;48.710;9.024;2023-06-26T12:54:11;6.68;;;6.20;;
15667;SDS011;7934;48.710;9.024;2023-06-26T12:56:38;6.75;;;5.95;;
15667;SDS011;7934;48.710;9.024;2023-06-26T12:59:06;6.15;;;5.75;;
15667;SDS011;7934;48.710;9.024;2023-06-26T13:01:33;6.47;;;5.82;;
15667;SDS011;7934;48.710;9.024;2023-06-26T13:04:00;6.82;;;6.15;;
15667;SDS011;7934;48.710;9.024;2023-06-26T13:06:30;6.13;;;5.57;;
15667;SDS011;7934;48.710;9.024;2023-06-26T13:08:57;7.85;;;6.18;;
15667;SDS011;7934;48.710;9.024;2023-06-26T13:11:25;6.60;;;5.72;;
15667;SDS011;7934;48.710;9.024;2023-06-26T13:13:52;6.20;;;5.70;;
15667;SDS011;7934;48.710;9.024;2023-06-26T13:16:20;6.93;;;5.68;;
15667;SDS011;7934;48.710;9.024;2023-06-26T13:18:47;6.18;;;5.65;;
15667;SDS011;7934;48.710;9.024;2023-06-26T13:21:14;6.27;;;5.70;;
15667;SDS011;7934;48.710;9.024;2023-06-26T13:23:43;7.72;;;5.57;;
15667;SDS011;7934;48.710;9.024;2023-06-26T13:26:11;6.07;;;5.47;;
15667;SDS011;7934;48.710;9.024;2023-06-26T13:28:38;5.65;;;5.25;;
15667;SDS011;7934;48.710;9.024;2023-06-26T13:31:05;5.40;;;5.10;;
15667;SDS011;7934;48.710;9.024;2023-06-26T13:33:33;5.20;;;4.90;;
15667;SDS011;7934;48.710;9.024;2023-06-26T13:36:00;6.32;;;5.30;;
15667;SDS011;7934;48.710;9.024;2023-06-26T13:38:29;6.03;;;5.43;;
15667;SDS011;7934;48.710;9.024;2023-06-26T13:40:58;5.57;;;5.07;;
15667;SDS011;7934;48.710;9.024;2023-06-26T13:43:26;5.80;;;5.30;;
15667;SDS011;7934;48.710;9.024;2023-06-26T13:45:53;6.00;;;5.50;;
15667;SDS011;7934;48.710;9.024;2023-06-26T13:48:21;6.23;;;5.33;;
15667;SDS011;7934;48.710;9.024;2023-06-26T13:50:49;5.83;;;5.33;;
15667;SDS011;7934;48.710;9.024;2023-06-26T13:53:17;5.22;;;4.93;;
15667;SDS011;7934;48.710;9.024;2023-06-26T13:55:44;5.47;;;5.18;;
15667;SDS011;7934;48.710;9.024;2023-06-26T13:58:13;6.13;;;5.53;;
15667;SDS011;7934;48.710;9.024;2023-06-26T14:00:40;5.43;;;5.00;;
15667;SDS011;7934;48.710;9.024;2023-06-26T14:03:10;5.35;;;4.85;;
15667;SDS011;7934;48.710;9.024;2023-06-26T14:05:37;5.37;;;4.90;;
15667;SDS011;7934;48.710;9.024;2023-06-26T14:08:06;7.13;;;4.80;;
15667;SDS011;7934;48.710;9.024;2023-06-26T14:10:34;4.93;;;4.53;;
15667;SDS011;7934;48.710;9.024;2023-06-26T14:13:01;5.45;;;4.55;;
15667;SDS011;7934;48.710;9.024;2023-06-26T14:15:30;4.88;;;4.43;;
15667;SDS011;7934;48.710;9.024;2023-06-26T14:17:57;4.60;;;4.30;;
15667;SDS011;7934;48.710;9.024;2023-06-26T14:20:27;4.47;;;4.10;;
15667;SDS011;7934;48.710;9.024;2023-06-26T14:22:57;4.50;;;4.10;;
15667;SDS011;7934;48.710;9.024;2023-06-26T14:25:25;4.05;;;3.75;;
15667;SDS011;7934;48.710;9.024;2023-06-26T14:27:54;3.85;;;3.65;;
15667;SDS011;7934;48.710;9.024;2023-06-26T14:30:21;6.15;;;3.97;;
15667;SDS011;7934;48.710;9.024;2023-06-26T14:32:50;7.38;;;3.92;;
15667;SDS011;7934;48.710;9.024;2023-06-26T14:35:18;3.97;;;3.70;;
15667;SDS011;7934;48.710;9.024;2023-06-26T14:37:47;3.47;;;3.25;;
15667;SDS011;7934;48.710;9.024;2023-06-26T14:40:15;6.18;;;3.63;;
15667;SDS011;7934;48.710;9.024;2023-06-26T14:42:42;4.13;;;3.70;;
15667;SDS011;7934;48.710;9.024;2023-06-26T14:45:10;4.20;;;3.80;;
15667;SDS011;7934;48.710;9.024;2023-06-26T14:47:38;3.53;;;3.13;;
15667;SDS011;7934;48.710;9.024;2023-06-26T14:50:07;4.00;;;3.70;;
15667;SDS011;7934;48.710;9.024;2023-06-26T14:52:35;3.85;;;3.30;;
15667;SDS011;7934;48.710;9.024;2023-06-26T14:55:02;4.10;;;3.70;;
15667;SDS011;7934;48.710;9.024;2023-06-26T14:57:30;7.40;;;3.42;;
15667;SDS011;7934;48.710;9.024;2023-06-26T14:59:57;9.43;;;3.58;;
15667;SDS011;7934;48.710;9.024;2023-06-26T15:02:24;3.78;;;3.42;;
15667;SDS011;7934;48.710;9.024;2023-06-26T15:04:52;4.25;;;3.90;;